Racecast

Franco Melhado

Texas State (TX) · So · TX D6ADistrict 13 · Compare head to head

Athlete rating 110.1 2024 TF season
Best race 128.0 TF
Races 96
Seasons 8 2017 — 2024

RankedNation #4203·NCAA DI #2526·SOUTH CENTRAL #380·TX #223·Team #14 ?

Rating scale ?
Speed rating — all races

Cross Country

XC speed rating

2023 XC 107.4

Texas State (TX) · Grade Jr

Date Meet Event Result Place Rating Difficulty PR/SR Flags
2023-10-28 Graham Creek Nature Preserve 8000m +0.021 CSR
2023-10-13 Watts Cross Country Course 8000m 26:16.6 273rd · 8th on team 106.5 -0.003 ★CR CSR
2023-10-07 Lynn Creek Park 8000m 26:02.2 78th · 6th on team 106.8 -0.013 ★PR ★CR SR CSR
2023-09-16 Windcrest Golf Club 8000m 26:09.6 30th · 3rd on team 108.5 +0.001 PR ★CR SR CSR RSR
2023-09-01 Classics Elite Soccer Academy McAllister Fields 6000m 19:18.8 28th · 6th on team 107.6 -0.006 ★PR ★CR SR CSR RSR

2022 XC 105.4

Texas State (TX) · Grade SO-2

Date Meet Event Result Place Rating Difficulty PR/SR Flags
2022-10-28 Graham Creek Nature Preserve 8000m 26:53 38th · 1st on team 108.7 +0.021 PR ★CR SR CSR RSR
2022-10-15 Watts Cross Country Course 8000m 27:54.3 291st · 3rd on team 101.7 -0.003 CR CSR
2022-09-30 Agri Park 8000m 27:29.4 81st · 3rd on team 104.3 +0.018 ★CR SR CSR
2022-09-16 Watts Cross Country Course 8000m -0.003 CR SR CSR
2022-09-02 Incarnate Word home course 6000m 19:56.4 38th · 2nd on team 107.1 +0.015 PR ★CR SR CSR RSR

2021 XC 106.3

Unattached (TX) · Grade ?

Date Meet Event Result Place Rating Difficulty PR/SR Flags
2021-10-16 Dale Watts '71 XC Course 8000m 27:09.7 210th · 6th on team 105.3 -0.010 PR ★CR SR CSR
2021-09-11 lynn creek park 5000m 16:20.9 31st · 9th on team 107.2 +0.003 ★PR ★CR SR CSR RSR

2020 XC 120.2

Round Rock McNeil (TX) · Grade 12

Date Meet Event Result Place Rating Difficulty PR/SR Flags
2020-10-27 Old Settlers Park 5000m 17:42 32nd · 4th on team 117.5 +0.009
2020-10-21 Old Settlers Park 3218m 10:36 16th · 1st on team 124.7 +0.014 ★PR ★CR SR CSR RSR
2020-10-03 Marble Falls High School 5000m 17:58.6 26th · 1st on team 115.8 +0.001 ★CR CSR
2020-09-26 Old Settlers Park 5000m 17:15.7 26th · 1st on team 123.1 +0.009 SR CSR RSR
2020-09-17 Tenroc Ranch 5000m 17:49.8 17th · 1st on team 120.2 +0.020 SR CSR RSR

2019 XC 117.3

Round Rock McNeil (TX) · Grade 11

Date Meet Event Result Place Rating Difficulty PR/SR Flags
2019-10-17 Old Settlers Park 5000m 16:59 31st · 2nd on team 122.2 +0.009 PR ★CR SR CSR RSR
2019-09-28 Old Settlers Park 5000m 17:44.9 321st · 1st on team 117.9 +0.009 CR SR CSR
2019-09-19 Tenroc Ranch 5000m 17:46.5 8th · 2nd on team 118.7 +0.020 ★CR SR CSR
2019-09-14 Lago Vista High School 5000m 20:20.8 76th · 6th on team 106.9 +0.049 SR CSR
2019-08-30 James Wilson Park 4828m 17:04 11th · 1st on team 120.9 +0.035 ★PR ★CR SR CSR RSR
2019-08-23 Wildflower Country Club 4828m 17:25.7 15th · 1st on team 117.3 +0.024 PR ★CR SR CSR RSR

2018 XC 111.9

Round Rock McNeil (TX) · Grade 10

Date Meet Event Result Place Rating Difficulty PR/SR Flags
2018-10-11 Old Settlers Park 5000m 18:33.5 52nd · 6th on team 112.3 +0.009
2018-10-11 Old Settlers Park 5021m 18:33.6 52nd · 6th on team +0.009 ★PR ★CR SR CSR
2018-10-04 Old Settlers Park 3218m 11:35 36th · 6th on team 112.5 +0.014 PR CR SR CSR
2018-09-29 Old Settlers Park 5000m 18:29.2 198th · 5th on team 111.9 +0.009 CR CSR
2018-09-20 Tenroc Ranch 4988m 19:09.9 11th · 6th on team 109.7 +0.020 ★PR ★CR SR CSR
2018-09-15 Lago Vista High School 5000m 19:23.6 28th · 5th on team 111.8 +0.049 ★CR CSR
2018-08-31 Southeast Metro Park 5000m 17:43 82nd · 4th on team 116.6 -0.015 PR ★CR SR CSR RSR
2018-08-24 Bear Branch Park 4000m 15:00.6 84th · 4th on team 110.1 +0.017 ★PR ★CR SR CSR
2018-08-17 Temple Lions Park 4828m 18:35.7 40th · 5th on team 110.5 +0.030 PR ★CR SR CSR RSR

2017 XC 103.3

Round Rock McNeil (TX) · Grade 9

Date Meet Event Result Place Rating Difficulty PR/SR Flags
2017-10-12 Old Settlers Park 5000m 19:52.3 15th · 2nd on team 105.7 +0.009 PR CR R SR CSR RSR
2017-10-05 Old Settlers Park 5000m 20:37 17th · 1st on team 100.8 +0.009 PR CR R SR CSR RSR

Track & Field

TF speed rating

2024 TF 108.1

Texas State (TX) · Grade So

Date Meet Event Result Place Rating Difficulty PR/SR Flags
2024-04-27 Texas Invitational (outdoor) 1500m 4:05.56 22nd · 1st on team 108.0 -0.031
2024-04-20 Texas A&M Alumni Muster Invitational 1500m 4:08.18 8th · 1st on team 108.5 -0.006
2024-04-13 Cactus Cup 800m 1:59.78 9th · 2nd on team 109.3 -0.015 SR
2024-03-30 Bobcat Invitational 1500m 4:00.5 25th · 1st on team 110.2 -0.029 SR
2024-03-15 Meet results → Men's 5000 Meters 16:26.76 11th · 3rd on team 100.0 ★PR SR
2024-02-20 Sun Belt Conference 1mile 4:16.86 8th · 1st on team 110.5 -0.040 ★PR SR RSR
2024-02-20 Sun Belt Conference 1mile 4:24.01 17th · 2nd on team 107.5 -0.040
2024-02-10 TTU Jarvis Scott Open 1000m 2:31.71 6th · 2nd on team 110.1 -0.028 ★PR SR RSR
2024-02-10 TTU Jarvis Scott Open 1mile 4:25.34 21st · 3rd on team 108.3 -0.028
2024-02-02 Charlie Thomas Invitational | Friday 1mile 4:18.84 6th · 2nd on team 109.1 -0.045 PR SR RSR
2024-01-12 Leonard Hilton Invitational 1mile 4:23.22 14th · 1st on team 108.1 -0.038 SR RSR

2023 TF 109.2

Texas State (TX) · Grade Fr

Date Meet Event Result Place Rating Difficulty PR/SR Flags
2023-05-13 Sun Belt Outdoor Track and Field Championships 1500m 4:03.31 24th · 2nd on team 109.0 -0.028
2023-05-13 Sun Belt Outdoor Track and Field Championships 1500m 4:01.28 17th · 1st on team 109.9 -0.028
2023-04-29 Texas Invitational 1500m 3:56.95 10th · 1st on team 111.8 -0.031
2023-04-15 UF Tom Jones Memorial Invitational 1500m 3:55.26 37th · 1st on team 111.5 -0.037 ★PR SR
2023-04-01 Bobcat Invitational 2023 1500m 4:14.85 20th · 2nd on team 103.8 -0.029
2023-04-01 Bobcat Invitational 2023 1500m 3:55.88 8th · 1st on team 112.2 -0.029 PR SR RSR
2023-03-25 Texas State U Charles Austin Classic 800m 1:55.87 6th · 3rd on team 111.3 -0.029 ★PR SR RSR
2023-03-18 UTSA Invitational 1500m 4:06.39 17th · 1st on team 109.5 -0.012 PR SR
2023-02-21 Sun Belt Indoor Track & Field Championships 1mile 4:19.04 22nd · 1st on team 109.7 -0.040 PR SR
2023-02-10 Houston Howie Ryan Invitational 1mile 4:19.28 13th · 1st on team 109.9 -0.038 PR SR RSR
2023-01-27 Houston Invitational 800m 2:02.08 27th · 1st on team 105.1 -0.038 PR SR
2023-01-27 Houston Invitational 1mile 4:24.69 6th · 1st on team 107.6 -0.038 PR SR
2023-01-20 TTU Red Raider Open 1mile 4:27.39 17th · 1st on team 107.6 -0.028 PR SR RSR

2022 TF 107.5

Unattached (TX) · Grade FR

Date Meet Event Result Place Rating Difficulty PR/SR Flags
2022-04-08 Meet results → Men's 1500 Meters 4:02.32 15th · 2nd on team 109.2 ★PR SR RSR
2022-04-08 Meet results → Men's 800 Meters 1:57.86 13th · 2nd on team 109.5 ★PR SR RSR
2022-03-24 Meet results → Men's 1500 Meters 4:08.08 38th · 2nd on team 106.7 PR SR RSR
2022-03-17 Meet results → Men's 800 Meters 2:01.37 21st · 2nd on team 106.3 PR SR RSR
2022-03-17 Meet results → Men 1500m Run Section 2 Section 2 4:10.6 5th · 1st on team 105.6 ★PR SR

2021 TF 125.4

Unattached (TX) · Grade 12

Date Meet Event Result Place Rating Difficulty PR/SR Flags
2021-05-15 TX TTFCA 5th Annual Meet of Champions 1600m 4:27 23rd · 17th on team 127.4 -0.034 ★PR SR
2021-05-02 Schrader 1600 1600m 4:29.56 22nd · 17th on team 127.2 -0.029 PR SR
2021-04-08 UIL 6A District 25 Varsity Meet 1600m 4:30.61 5th · 1st on team 128.0 -0.018 PR ★R SR RSR
2021-03-11 McNeil Maverick Relays 1600m 4:36.1 5th · 1st on team 125.4 -0.024 SR
2021-03-06 Smithson Valley Ranger Relays 1600m 4:36.44 4th · 1st on team 124.7 -0.026 SR RSR
2021-03-06 Smithson Valley Ranger Relays 800m 2:03.17 4th · 1st on team 125.4 -0.026 PR R SR RSR
2021-02-25 Westlake Chap Relays 1600m 4:39.69 2nd · 1st on team 121.6 -0.037 SR RSR
2021-02-25 Westlake Chap Relays 800m 2:03.86 1st · 1st on team 123.3 -0.037 PR SR RSR

2020 TF 122.9

Round Rock McNeil (TX) · Grade 11

Date Meet Event Result Place Rating Difficulty PR/SR Flags
2020-03-13 McNeil Maverick Relays 1600m 4:36.06 5th · 1st on team 125.1 -0.024
2020-03-06 Killeen ISD Relays 1600m 4:34.05 2nd · 1st on team 125.3 -0.030 PR R SR RSR
2020-03-06 Killeen ISD Relays 3200m 10:08.95 2nd · 1st on team 121.8 -0.030 ★PR SR
2020-02-14 Leander Lion Relays 800m 2:08.37 4th · 1st on team 119.8 -0.029 SR
2020-02-14 Leander Lion Relays 1600m 4:39.92 5th · 1st on team 123.0 -0.029 SR RSR
2020-01-11 Texas A&M HS Classic 1mile 4:39.41 28th · 3rd on team 122.3 -0.045 PR SR RSR

2019 TF 119.7

Round Rock McNeil (TX) · Grade 10

Date Meet Event Result Place Rating Difficulty PR/SR Flags
2019-04-04 UIL 6A District 13 (W-Th) 1600m 4:39.48 13th · 2nd on team 123.3 -0.029 PR R SR RSR
2019-04-04 UIL 6A District 13 (W-Th) 800m 2:06.48 16th · 1st on team 121.1 -0.029
2019-03-29 South Austin Relays 800m 2:06.9 3rd · 1st on team 121.2 -0.028
2019-03-16 TSU Relays - HS & MS Divs (F-Sa) 800m 2:06.53 30th · 1st on team 121.0 -0.031
2019-03-08 McNeil Maverick Relays 800m 2:05.77 5th · 1st on team 122.5 -0.024 PR R SR RSR
2019-03-02 Smithson Valley Ranger Relays 1600m 4:45.61 12th · 1st on team 121.0 -0.026 PR R SR RSR
2019-03-02 Smithson Valley Ranger Relays 800m 2:07.08 5th · 2nd on team 121.2 -0.026 PR R SR RSR
2019-02-23 Westlake Chap Relays 1600m 4:52.76 5th · 1st on team 116.6 -0.037 PR SR RSR
2019-02-23 Westlake Chap Relays 800m 2:09.28 7th · 1st on team 117.5 -0.037 PR SR RSR
2019-01-12 Carl Lewis HS Invitational 1mile 4:56.99 64th · 9th on team 115.9 -0.038 PR SR RSR
2019-01-05 Texas A&M HS Indoor Classic 1mile 4:57.21 125th · 9th on team 115.0 -0.045 PR SR RSR

2018 TF 114.9

Round Rock McNeil (TX) · Grade 9

Date Meet Event Result Place Rating Difficulty PR/SR Flags
2018-04-12 UIL 6A District 13 (W-Th) 1600m 5:02.86 2nd · 1st on team 114.2 -0.022 PR SR
2018-04-12 UIL 6A District 13 (W-Th) 800m 2:13.54 3rd · 1st on team 115.2 -0.022
2018-03-24 Midway Relays 1600m 5:05.03 5th · 1st on team 113.1 -0.025 PR SR
2018-03-24 Midway Relays 800m 2:09.57 3rd · 1st on team 118.4 -0.025 PR R SR RSR
2018-03-09 McNeil Maverick Relays 800m 2:14.29 1st · 1st on team 114.7 -0.024
2018-03-09 McNeil Maverick Relays 400m 58.23 4th · 1st on team -0.024 ★PR SR
2018-03-03 Smithson Valley Ranger Relays 800m 2:11.84 9th · 3rd on team 116.2 -0.026 PR R SR RSR
2018-03-03 Smithson Valley Ranger Relays 1600m 5:06.03 10th · 2nd on team 112.5 -0.026 PR SR